Siem Pilot — LCPF — position and weather

sailwx.info

Track history (hours):
 
Tides and Currents Weather Stations Pressure Air Temp Water Temp Dewpoint Dewpoint Depression Visibility Wind Speed Wind Dir Waves Ship Positions

Siem Pilot

Last reported at 2016-May-01 11:33 UTC. Time now 2016-May-05 08:37 UTC.
Position N 36°42' E 014°51'.

Length 88 m; draft 5.8 m.

Type: Law enforcement. MMSI: 257458000.

Date/timePositionNaut miles runAvg speedWind from/ knotsBaromVisibWave heightAir tempDewpointWater temp
2016-May-01 11:33N 36°42' E 014°51'1 0.9
2016-May-01 10:33N 36°43' E 014°50'0 0.0
2016-May-01 09:33N 36°43' E 014°50'0 0.0
2016-May-01 08:33N 36°43' E 014°50'0 0.0
2016-May-01 06:33N 36°43' E 014°50'2 0.5
2016-May-01 02:28N 36°41' E 014°52'0 0.0
2016-Apr-30 23:25N 36°41' E 014°52'0 0.0
2016-Apr-30 22:28N 36°41' E 014°52'0 0.0
2016-Apr-30 21:25N 36°41' E 014°52'0 0.0
2016-Apr-30 20:31N 36°41' E 014°52'0 0.0
2016-Apr-30 19:31N 36°41' E 014°52'0 0.0
2016-Apr-30 18:31N 36°41' E 014°52'0 0.0
2016-Apr-30 17:31N 36°41' E 014°52'2 1.8
2016-Apr-30 16:33N 36°41' E 014°50'1111.2
2016-Apr-30 15:33N 36°35' E 014°38'1111.3
2016-Apr-30 14:33N 36°29' E 014°26'1110.9
2016-Apr-30 13:33N 36°23' E 014°15'1110.9
2016-Apr-30 12:33N 36°16' E 014°04'1110.6
2016-Apr-30 11:33N 36°08' E 013°56'1211.5
2016-Apr-30 10:33N 35°57' E 013°51'2311.6
2016-Apr-30 08:33N 35°36' E 013°41'42 1.2
2016-Apr-28 21:32N 35°20' E 014°29'1611.4
2016-Apr-28 20:05N 35°33' E 014°42'611.7
2016-Apr-28 19:33N 35°38' E 014°46'1411.9
2016-Apr-28 18:25N 35°49' E 014°56'1212.1
2016-Apr-28 17:27N 36°01' E 014°59'89 6.8
2016-Apr-28 04:20N 37°30' E 015°06'79 9.6
2016-Apr-27 20:05N 36°12' E 014°47'812.3
2016-Apr-27 19:26N 36°05' E 014°41'1112.2
2016-Apr-27 18:33N 35°56' E 014°34'  
2016-Apr-24 18:32N 35°54' E 014°31'3 3.5
2016-Apr-24 17:33N 35°56' E 014°35'9 8.9
2016-Apr-24 16:33N 35°58' E 014°46'  
Track history (hours):
 
Tides and Currents Weather Stations Pressure Air Temp Water Temp Dewpoint Dewpoint Depression Visibility Wind Speed Wind Dir Waves Ship Positions

Siem Pilot

Last reported at 2016-May-01 11:33 UTC. Time now 2016-May-05 08:37 UTC.
Position N 36°42' E 014°51'.

Length 88 m; draft 5.8 m.

Type: Law enforcement. MMSI: 257458000.

Date/timePositionNaut miles runAvg speedWind from/ knotsBaromVisibWave heightAir tempDewpointWater temp
2016-May-01 11:33N 36°42' E 014°51'1 0.9
2016-May-01 10:33N 36°43' E 014°50'0 0.0
2016-May-01 09:33N 36°43' E 014°50'0 0.0
2016-May-01 08:33N 36°43' E 014°50'0 0.0
2016-May-01 06:33N 36°43' E 014°50'2 0.5
2016-May-01 02:28N 36°41' E 014°52'0 0.0
2016-Apr-30 23:25N 36°41' E 014°52'0 0.0
2016-Apr-30 22:28N 36°41' E 014°52'0 0.0
2016-Apr-30 21:25N 36°41' E 014°52'0 0.0
2016-Apr-30 20:31N 36°41' E 014°52'0 0.0
2016-Apr-30 19:31N 36°41' E 014°52'0 0.0
2016-Apr-30 18:31N 36°41' E 014°52'0 0.0
2016-Apr-30 17:31N 36°41' E 014°52'2 1.8
2016-Apr-30 16:33N 36°41' E 014°50'1111.2
2016-Apr-30 15:33N 36°35' E 014°38'1111.3
2016-Apr-30 14:33N 36°29' E 014°26'1110.9
2016-Apr-30 13:33N 36°23' E 014°15'1110.9
2016-Apr-30 12:33N 36°16' E 014°04'1110.6
2016-Apr-30 11:33N 36°08' E 013°56'1211.5
2016-Apr-30 10:33N 35°57' E 013°51'2311.6
2016-Apr-30 08:33N 35°36' E 013°41'42 1.2
2016-Apr-28 21:32N 35°20' E 014°29'1611.4
2016-Apr-28 20:05N 35°33' E 014°42'611.7
2016-Apr-28 19:33N 35°38' E 014°46'1411.9
2016-Apr-28 18:25N 35°49' E 014°56'1212.1
2016-Apr-28 17:27N 36°01' E 014°59'89 6.8
2016-Apr-28 04:20N 37°30' E 015°06'79 9.6
2016-Apr-27 20:05N 36°12' E 014°47'812.3
2016-Apr-27 19:26N 36°05' E 014°41'1112.2
2016-Apr-27 18:33N 35°56' E 014°34'  
2016-Apr-24 18:32N 35°54' E 014°31'3 3.5
2016-Apr-24 17:33N 35°56' E 014°35'9 8.9
2016-Apr-24 16:33N 35°58' E 014°46'  

Dump ship's entire track history